createdAt,value
2023-01-01T00:00:28.347Z,10.96
2023-01-01T00:02:54.968Z,10.83
2023-01-01T00:05:21.686Z,11.00
2023-01-01T00:07:48.293Z,11.04
2023-01-01T00:10:15.013Z,10.97
2023-01-01T00:12:41.855Z,10.99
2023-01-01T00:15:08.747Z,10.89
2023-01-01T00:17:35.449Z,10.98
2023-01-01T00:20:02.156Z,10.86
2023-01-01T00:22:53.278Z,10.82
2023-01-01T00:25:15.886Z,10.78
2023-01-01T00:27:42.751Z,10.85
2023-01-01T00:30:10.857Z,10.72
2023-01-01T00:32:37.587Z,10.94
2023-01-01T00:35:04.535Z,10.95
2023-01-01T00:37:31.136Z,10.88
2023-01-01T00:39:57.784Z,10.92
2023-01-01T00:42:24.445Z,10.92
2023-01-01T00:44:51.111Z,10.98
2023-01-01T00:47:17.905Z,10.99
2023-01-01T00:49:44.545Z,10.72
2023-01-01T00:52:11.175Z,10.76
2023-01-01T00:54:37.904Z,10.80
2023-01-01T00:57:04.734Z,10.82
2023-01-01T00:59:31.442Z,10.88
2023-01-01T01:01:58.206Z,10.68
2023-01-01T01:04:25.366Z,10.63
2023-01-01T01:06:51.987Z,10.71
2023-01-01T01:09:18.737Z,10.67
2023-01-01T01:11:45.327Z,10.53
2023-01-01T01:14:12.612Z,10.66
2023-01-01T01:16:39.307Z,10.55
2023-01-01T01:19:06.512Z,10.76
2023-01-01T01:21:34.791Z,10.60
2023-01-01T01:24:03.362Z,10.68
2023-01-01T01:26:32.765Z,10.79
2023-01-01T01:28:59.911Z,10.69
2023-01-01T01:31:31.366Z,10.59
2023-01-01T01:33:58.261Z,10.52
2023-01-01T01:36:26.457Z,10.58
2023-01-01T01:38:53.405Z,10.24
2023-01-01T01:41:29.781Z,10.49
2023-01-01T01:44:02.333Z,10.44
2023-01-01T01:46:40.343Z,10.37
2023-01-01T01:49:29.074Z,10.39
2023-01-01T01:51:56.532Z,10.14
2023-01-01T01:54:25.797Z,10.52
2023-01-01T01:56:57.752Z,10.37
2023-01-01T01:59:30.120Z,10.37
2023-01-01T02:01:57.556Z,10.21
2023-01-01T02:04:24.718Z,10.51
2023-01-01T02:06:52.614Z,10.38
2023-01-01T02:09:19.256Z,9.50
2023-01-01T02:11:46.046Z,10.23
2023-01-01T02:14:12.788Z,10.30
2023-01-01T02:16:57.991Z,10.31
2023-01-01T02:19:48.856Z,10.21
2023-01-01T02:22:24.677Z,9.98
2023-01-01T02:25:29.521Z,10.02
2023-01-01T02:28:11.803Z,9.90
2023-01-01T02:30:41.505Z,9.92
2023-01-01T02:33:13.076Z,10.03
2023-01-01T02:35:45.551Z,10.06
2023-01-01T02:38:37.997Z,10.06
2023-01-01T02:41:26.330Z,9.99
2023-01-01T02:43:53.799Z,10.13
2023-01-01T02:48:51.703Z,10.01
2023-01-01T02:51:33.352Z,9.77
2023-01-01T02:54:04.699Z,9.88
2023-01-01T02:56:46.302Z,9.96
2023-01-01T02:59:12.993Z,10.01
2023-01-01T03:02:00.869Z,10.00
2023-01-01T03:04:41.001Z,10.06
2023-01-01T03:07:35.327Z,10.00
2023-01-01T03:10:12.442Z,9.99
2023-01-01T03:12:46.981Z,10.02
2023-01-01T03:15:19.918Z,9.81
2023-01-01T03:17:57.557Z,9.85
2023-01-01T03:20:27.810Z,9.82
2023-01-01T03:23:02.094Z,9.88
2023-01-01T03:25:34.052Z,9.90
2023-01-01T03:28:08.093Z,9.79
2023-01-01T03:30:38.648Z,9.73
2023-01-01T03:33:13.461Z,9.51
2023-01-01T03:35:48.566Z,9.71
2023-01-01T03:38:24.627Z,9.48
2023-01-01T03:40:58.029Z,9.91
2023-01-01T03:43:39.558Z,9.95
2023-01-01T03:46:08.763Z,9.96
2023-01-01T03:48:35.793Z,9.92
2023-01-01T03:51:18.364Z,10.00
2023-01-01T03:53:45.091Z,9.90
2023-01-01T03:56:21.244Z,10.01
2023-01-01T03:59:00.562Z,10.01
2023-01-01T04:01:34.821Z,10.12
2023-01-01T04:04:04.980Z,10.08
2023-01-01T04:06:34.796Z,9.99
2023-01-01T04:09:03.120Z,9.99
2023-01-01T04:11:32.508Z,9.94
2023-01-01T04:14:01.299Z,10.05
2023-01-01T04:16:28.115Z,10.10
2023-01-01T04:18:54.892Z,10.14
2023-01-01T04:21:21.465Z,10.19
2023-01-01T04:23:49.453Z,10.09
2023-01-01T04:26:16.606Z,10.22
2023-01-01T04:28:43.287Z,10.08
2023-01-01T04:31:10.052Z,10.02
2023-01-01T04:33:36.815Z,9.94
2023-01-01T04:36:08.849Z,10.15
2023-01-01T04:38:36.923Z,10.37
2023-01-01T04:41:04.886Z,10.32
2023-01-01T04:43:32.009Z,10.17
2023-01-01T04:46:00.568Z,9.84
2023-01-01T04:48:28.566Z,9.83
2023-01-01T04:51:03.389Z,9.97
2023-01-01T04:53:32.782Z,9.88
2023-01-01T04:56:15.149Z,9.77
2023-01-01T04:58:43.149Z,10.09
2023-01-01T05:01:22.527Z,10.02
2023-01-01T05:03:49.828Z,9.89
2023-01-01T05:06:16.759Z,9.73
2023-01-01T05:08:45.759Z,9.66
2023-01-01T05:11:16.752Z,9.95
2023-01-01T05:13:45.777Z,10.09
2023-01-01T05:16:15.691Z,10.11
2023-01-01T05:18:43.382Z,9.78
2023-01-01T05:21:13.890Z,9.82
2023-01-01T05:23:40.704Z,9.91
2023-01-01T05:26:19.172Z,10.02
2023-01-01T05:28:47.109Z,10.11
2023-01-01T05:31:15.623Z,9.94
2023-01-01T05:33:42.606Z,9.86
2023-01-01T05:36:14.589Z,9.72
2023-01-01T05:38:41.382Z,9.79
2023-01-01T05:41:09.627Z,9.88
2023-01-01T05:43:36.805Z,9.64
2023-01-01T05:46:05.992Z,9.84
2023-01-01T05:48:33.508Z,9.75
2023-01-01T05:51:17.552Z,9.56
2023-01-01T05:53:44.260Z,9.65
2023-01-01T05:56:12.008Z,9.66
2023-01-01T05:58:39.028Z,9.73
2023-01-01T06:01:10.578Z,9.84
2023-01-01T06:03:37.274Z,9.66
2023-01-01T06:06:18.456Z,9.84
2023-01-01T06:08:51.181Z,9.90
2023-01-01T06:11:18.213Z,9.69
2023-01-01T06:13:45.023Z,9.83
2023-01-01T06:16:12.529Z,9.27
2023-01-01T06:18:40.991Z,9.40
2023-01-01T06:21:15.000Z,9.69
2023-01-01T06:23:42.482Z,9.81
2023-01-01T06:26:12.342Z,9.46
2023-01-01T06:28:40.103Z,9.73
2023-01-01T06:31:09.726Z,9.72
2023-01-01T06:33:37.521Z,9.86
2023-01-01T06:36:06.367Z,9.78
2023-01-01T06:38:34.799Z,10.03
2023-01-01T06:41:04.608Z,9.92
2023-01-01T06:43:33.363Z,9.86
2023-01-01T06:46:26.328Z,9.88
2023-01-01T06:48:55.877Z,9.75
2023-01-01T06:51:24.953Z,9.55
2023-01-01T06:53:52.651Z,9.77
2023-01-01T06:56:20.365Z,9.87
2023-01-01T06:58:47.581Z,9.60
2023-01-01T07:01:23.089Z,9.55
2023-01-01T07:03:57.867Z,9.40
2023-01-01T07:06:25.752Z,9.90
2023-01-01T07:08:52.538Z,9.84
2023-01-01T07:11:19.565Z,9.67
2023-01-01T07:13:46.280Z,9.67
2023-01-01T07:16:13.979Z,9.55
2023-01-01T07:18:41.308Z,9.48
2023-01-01T07:21:45.115Z,9.49
2023-01-01T07:24:14.528Z,9.51
2023-01-01T07:26:41.174Z,9.66
2023-01-01T07:29:08.666Z,9.71
2023-01-01T07:31:37.713Z,9.73
2023-01-01T07:34:05.527Z,9.62
2023-01-01T07:36:32.321Z,9.42
2023-01-01T07:38:59.036Z,9.45
2023-01-01T07:41:25.702Z,9.34
2023-01-01T07:43:52.766Z,9.42
2023-01-01T07:46:19.585Z,9.38
2023-01-01T07:48:46.495Z,9.51
2023-01-01T07:51:13.463Z,9.51
2023-01-01T07:53:40.111Z,9.65
2023-01-01T07:56:07.514Z,9.59
2023-01-01T07:58:34.293Z,9.57
2023-01-01T08:01:00.942Z,9.51
2023-01-01T08:03:27.804Z,9.50
2023-01-01T08:05:54.754Z,9.65
2023-01-01T08:08:21.505Z,9.86
2023-01-01T08:10:48.125Z,9.77
2023-01-01T08:13:15.189Z,9.76
2023-01-01T08:15:41.863Z,9.75
2023-01-01T08:18:09.459Z,9.90
2023-01-01T08:20:36.111Z,10.02
2023-01-01T08:23:07.126Z,10.06
2023-01-01T08:25:35.054Z,10.01
2023-01-01T08:28:01.750Z,10.05
2023-01-01T08:30:28.501Z,10.12
2023-01-01T08:32:55.184Z,10.24
2023-01-01T08:35:21.944Z,10.23
2023-01-01T08:37:48.579Z,10.32
2023-01-01T08:40:15.288Z,10.22
2023-01-01T08:42:42.030Z,10.24
2023-01-01T08:45:09.535Z,10.34
2023-01-01T08:47:36.216Z,10.30
2023-01-01T08:50:03.236Z,10.39
2023-01-01T08:52:29.819Z,10.46
2023-01-01T08:54:56.545Z,10.54
2023-01-01T08:57:23.213Z,10.61
2023-01-01T08:59:49.889Z,10.64
2023-01-01T09:02:16.658Z,10.64
2023-01-01T09:04:43.578Z,10.66
2023-01-01T09:07:10.204Z,10.59
2023-01-01T09:09:36.838Z,10.44
2023-01-01T09:12:04.525Z,10.87
2023-01-01T09:14:32.166Z,11.00
2023-01-01T09:16:58.762Z,11.04
2023-01-01T09:19:25.607Z,11.10
2023-01-01T09:21:52.530Z,10.79
2023-01-01T09:24:19.204Z,11.09
2023-01-01T09:26:46.517Z,11.17
2023-01-01T09:29:13.254Z,11.14
2023-01-01T09:31:39.902Z,11.14
2023-01-01T09:34:06.634Z,10.99
2023-01-01T09:36:33.683Z,10.84
2023-01-01T09:39:01.154Z,10.90
2023-01-01T09:42:05.054Z,10.88
2023-01-01T09:44:53.263Z,11.03
2023-01-01T09:47:42.840Z,11.13
2023-01-01T09:50:14.520Z,11.12
2023-01-01T09:52:54.117Z,11.11
2023-01-01T09:55:57.740Z,11.27
2023-01-01T09:58:27.926Z,11.10
2023-01-01T10:01:02.937Z,10.86
2023-01-01T10:03:41.941Z,10.60
2023-01-01T10:06:27.269Z,10.57
2023-01-01T10:08:56.971Z,10.54
2023-01-01T10:11:36.774Z,10.61
2023-01-01T10:14:14.517Z,10.63
2023-01-01T10:16:45.769Z,10.64
2023-01-01T10:19:28.347Z,10.84
2023-01-01T10:22:01.997Z,10.91
2023-01-01T10:24:31.716Z,10.97
2023-01-01T10:26:58.984Z,10.65
2023-01-01T10:29:38.537Z,10.74
2023-01-01T10:32:27.879Z,10.58
2023-01-01T10:34:55.689Z,10.55
2023-01-01T10:37:22.369Z,10.75
2023-01-01T10:39:49.835Z,10.78
2023-01-01T10:42:16.813Z,10.83
2023-01-01T10:44:43.759Z,10.89
2023-01-01T10:47:25.147Z,10.87
2023-01-01T10:50:03.478Z,11.01
2023-01-01T10:52:41.270Z,11.05
2023-01-01T10:55:23.797Z,10.84
2023-01-01T10:57:50.503Z,10.94
2023-01-01T11:00:26.111Z,10.84
2023-01-01T11:03:18.785Z,10.82
2023-01-01T11:06:18.461Z,10.83
2023-01-01T11:08:56.667Z,10.62
2023-01-01T11:11:27.823Z,10.94
2023-01-01T11:13:58.439Z,10.96
2023-01-01T11:16:26.879Z,10.95
2023-01-01T11:19:02.494Z,10.84
2023-01-01T11:21:29.415Z,11.20
2023-01-01T11:24:16.842Z,11.26
2023-01-01T11:26:46.662Z,11.17
2023-01-01T11:29:15.758Z,10.97
2023-01-01T11:31:45.156Z,10.99
2023-01-01T11:34:30.693Z,10.93
2023-01-01T11:37:26.311Z,10.72
2023-01-01T11:39:55.388Z,11.15
2023-01-01T11:42:25.342Z,11.22
2023-01-01T11:44:59.530Z,11.25
2023-01-01T11:47:34.380Z,11.10
2023-01-01T11:50:24.721Z,10.71
2023-01-01T11:52:52.954Z,10.97
2023-01-01T11:55:41.083Z,10.83
2023-01-01T11:58:19.860Z,10.74
2023-01-01T12:00:50.904Z,10.50
2023-01-01T12:03:33.836Z,10.61
2023-01-01T12:06:19.294Z,10.70
2023-01-01T12:09:11.943Z,10.86
2023-01-01T12:11:48.278Z,10.73
2023-01-01T12:14:46.442Z,10.89
2023-01-01T12:17:22.656Z,11.16
2023-01-01T12:20:07.821Z,11.05
2023-01-01T12:22:35.149Z,10.51
2023-01-01T12:25:03.524Z,10.91
2023-01-01T12:27:39.625Z,10.83
2023-01-01T12:30:24.938Z,10.90
2023-01-01T12:32:54.605Z,10.59
2023-01-01T12:35:53.994Z,10.72
2023-01-01T12:38:32.899Z,10.64
2023-01-01T12:41:33.374Z,10.44
2023-01-01T12:44:16.876Z,10.41
2023-01-01T12:46:55.566Z,10.56
2023-01-01T12:49:57.415Z,10.44
2023-01-01T12:52:39.060Z,10.65
2023-01-01T12:55:36.183Z,10.50
2023-01-01T12:58:21.624Z,10.48
2023-01-01T13:01:01.171Z,10.44
2023-01-01T13:03:47.115Z,10.56
2023-01-01T13:06:17.643Z,10.71
2023-01-01T13:08:50.456Z,10.69
2023-01-01T13:11:17.929Z,10.42
2023-01-01T13:13:44.615Z,10.24
2023-01-01T13:16:12.840Z,10.37
2023-01-01T13:18:41.256Z,10.34
2023-01-01T13:21:22.675Z,10.45
2023-01-01T13:23:50.977Z,10.62
2023-01-01T13:26:17.623Z,10.70
2023-01-01T13:28:59.765Z,10.43
2023-01-01T13:31:38.758Z,10.17
2023-01-01T13:34:30.848Z,10.34
2023-01-01T13:37:12.581Z,10.43
2023-01-01T13:39:58.800Z,10.55
2023-01-01T13:42:43.518Z,10.38
2023-01-01T13:46:00.707Z,10.31
2023-01-01T13:48:30.025Z,10.31
2023-01-01T13:52:02.897Z,10.29
2023-01-01T13:54:52.565Z,10.24
2023-01-01T13:57:34.523Z,10.31
2023-01-01T14:00:07.605Z,10.46
2023-01-01T14:02:45.342Z,10.49
2023-01-01T14:05:26.083Z,10.37
2023-01-01T14:07:54.797Z,10.26
2023-01-01T14:10:32.633Z,10.21
2023-01-01T14:13:16.339Z,10.30
2023-01-01T14:15:58.494Z,10.28
2023-01-01T14:18:47.675Z,10.35
2023-01-01T14:21:22.563Z,10.22
2023-01-01T14:23:54.243Z,9.88
2023-01-01T14:26:23.247Z,10.05
2023-01-01T14:28:55.319Z,10.26
2023-01-01T14:31:26.845Z,10.29
2023-01-01T14:33:53.811Z,10.15
2023-01-01T14:36:27.417Z,10.34
2023-01-01T14:38:56.402Z,10.21
2023-01-01T14:41:22.951Z,10.33
2023-01-01T14:43:52.523Z,10.25
2023-01-01T14:46:21.027Z,10.42
2023-01-01T14:48:57.030Z,10.17
2023-01-01T14:51:26.657Z,10.10
2023-01-01T14:53:58.760Z,10.04
2023-01-01T14:56:31.351Z,10.03
2023-01-01T14:59:16.436Z,10.08
2023-01-01T15:01:43.416Z,10.18
2023-01-01T15:04:20.850Z,10.18
2023-01-01T15:06:56.492Z,10.19
2023-01-01T15:09:23.846Z,10.34
2023-01-01T15:11:57.677Z,10.16
2023-01-01T15:14:42.351Z,10.14
2023-01-01T15:17:36.620Z,10.33
2023-01-01T15:20:23.015Z,10.26
2023-01-01T15:22:50.462Z,10.24
2023-01-01T15:25:19.406Z,10.29
2023-01-01T15:27:50.804Z,10.33
2023-01-01T15:30:33.054Z,10.14
2023-01-01T15:33:08.755Z,10.29
2023-01-01T15:35:36.997Z,10.46
2023-01-01T15:38:24.224Z,10.30
2023-01-01T15:40:53.272Z,10.40
2023-01-01T15:43:24.913Z,10.43
2023-01-01T15:45:54.614Z,10.56
2023-01-01T15:48:48.801Z,10.44
2023-01-01T15:51:23.277Z,10.36
2023-01-01T15:54:03.496Z,10.41
2023-01-01T15:56:32.968Z,10.38
2023-01-01T15:59:09.154Z,10.10
2023-01-01T16:01:39.122Z,10.08
2023-01-01T16:04:17.643Z,10.16
2023-01-01T16:06:49.659Z,10.13
2023-01-01T16:09:18.122Z,10.05
2023-01-01T16:11:45.997Z,10.10
2023-01-01T16:14:17.672Z,10.13
2023-01-01T16:16:53.304Z,9.88
2023-01-01T16:22:03.644Z,10.31
2023-01-01T16:24:32.641Z,10.48
2023-01-01T16:26:59.424Z,10.60
2023-01-01T16:29:28.863Z,10.57
2023-01-01T16:31:55.881Z,10.45
2023-01-01T16:34:22.532Z,10.63
2023-01-01T16:36:49.334Z,10.47
2023-01-01T16:39:16.036Z,10.66
2023-01-01T16:41:43.947Z,10.51
2023-01-01T16:44:15.503Z,10.81
2023-01-01T16:46:43.191Z,10.84
2023-01-01T16:49:10.335Z,11.01
2023-01-01T16:51:40.660Z,11.13
2023-01-01T16:54:11.480Z,11.08
2023-01-01T16:56:38.306Z,11.17
2023-01-01T16:59:06.848Z,11.12
2023-01-01T17:01:34.006Z,11.15
2023-01-01T17:04:01.254Z,10.89
2023-01-01T17:06:27.907Z,11.01
2023-01-01T17:08:54.660Z,11.20
2023-01-01T17:11:21.280Z,11.24
2023-01-01T17:13:48.729Z,10.91
2023-01-01T17:16:21.369Z,11.00
2023-01-01T17:21:41.704Z,11.08
2023-01-01T17:24:08.465Z,10.98
2023-01-01T17:26:35.286Z,11.05
2023-01-01T17:29:02.577Z,11.09
2023-01-01T17:31:29.737Z,10.68
2023-01-01T17:33:56.963Z,11.02
2023-01-01T17:36:24.819Z,11.08
2023-01-01T17:38:52.231Z,11.12
2023-01-01T17:41:19.193Z,10.82
2023-01-01T17:43:48.050Z,10.76
2023-01-01T17:46:24.307Z,11.17
2023-01-01T17:48:51.977Z,11.08
2023-01-01T17:51:19.198Z,11.09
2023-01-01T17:53:46.904Z,11.05
2023-01-01T17:56:16.151Z,11.21
2023-01-01T17:58:44.175Z,11.31
2023-01-01T18:01:10.840Z,11.28
2023-01-01T18:03:39.990Z,11.38
2023-01-01T18:06:07.768Z,11.55
2023-01-01T18:08:34.572Z,11.55
2023-01-01T18:11:01.367Z,11.84
2023-01-01T18:13:28.125Z,11.75
2023-01-01T18:15:59.213Z,11.74
2023-01-01T18:18:26.111Z,11.62
2023-01-01T18:20:52.693Z,11.71
2023-01-01T18:23:19.407Z,11.67
2023-01-01T18:25:46.079Z,11.82
2023-01-01T18:28:12.727Z,11.84
2023-01-01T18:30:39.353Z,11.93
2023-01-01T18:33:06.155Z,11.95
2023-01-01T18:35:34.244Z,12.08
2023-01-01T18:38:00.923Z,12.18
2023-01-01T18:40:31.897Z,12.28
2023-01-01T18:43:06.105Z,12.35
2023-01-01T18:45:34.510Z,12.21
2023-01-01T18:48:03.088Z,12.16
2023-01-01T18:50:29.867Z,12.19
2023-01-01T18:53:08.733Z,12.35
2023-01-01T18:55:35.444Z,12.35
2023-01-01T18:58:17.390Z,12.45
2023-01-01T19:00:44.301Z,12.23
2023-01-01T19:03:20.892Z,12.17
2023-01-01T19:05:47.643Z,11.95
2023-01-01T19:08:17.404Z,11.43
2023-01-01T19:10:53.488Z,11.26
2023-01-01T19:13:30.344Z,11.32
2023-01-01T19:16:08.336Z,10.97
2023-01-01T19:18:35.338Z,10.70
2023-01-01T19:21:07.793Z,10.60
2023-01-01T19:23:36.598Z,10.66
2023-01-01T19:26:05.774Z,10.73
2023-01-01T19:28:35.167Z,10.52
2023-01-01T19:31:03.556Z,10.59
2023-01-01T19:33:30.470Z,10.77
2023-01-01T19:35:57.927Z,10.62
2023-01-01T19:38:24.777Z,10.69
2023-01-01T19:40:51.478Z,10.55
2023-01-01T19:43:18.577Z,10.61
2023-01-01T19:45:45.301Z,10.52
2023-01-01T19:48:12.089Z,10.84
2023-01-01T19:50:38.770Z,10.80
2023-01-01T19:53:12.604Z,10.71
2023-01-01T19:55:39.400Z,10.55
2023-01-01T19:58:06.248Z,10.37
2023-01-01T20:00:32.927Z,10.43
2023-01-01T20:03:19.220Z,10.44
2023-01-01T20:05:47.764Z,10.34
2023-01-01T20:08:14.432Z,10.19
2023-01-01T20:10:41.109Z,10.27
2023-01-01T20:13:07.694Z,9.99
2023-01-01T20:15:34.441Z,10.07
2023-01-01T20:18:01.153Z,9.98
2023-01-01T20:20:28.709Z,9.80
2023-01-01T20:22:55.417Z,9.75
2023-01-01T20:25:22.062Z,9.74
2023-01-01T20:27:54.698Z,9.82
2023-01-01T20:30:23.082Z,9.95
2023-01-01T20:32:49.814Z,10.00
2023-01-01T20:35:17.223Z,10.05
2023-01-01T20:37:43.909Z,10.22
2023-01-01T20:40:11.455Z,10.21
2023-01-01T20:42:38.297Z,10.19
2023-01-01T20:45:07.170Z,10.16
2023-01-01T20:47:34.148Z,9.96
2023-01-01T20:50:00.839Z,10.14
2023-01-01T20:52:27.718Z,10.27
2023-01-01T20:54:54.510Z,10.11
2023-01-01T20:57:21.106Z,10.09
2023-01-01T20:59:47.945Z,10.22
2023-01-01T21:02:15.987Z,10.19
2023-01-01T21:04:42.792Z,10.25
2023-01-01T21:07:11.334Z,10.07
2023-01-01T21:09:39.184Z,10.11
2023-01-01T21:12:06.731Z,10.23
2023-01-01T21:14:33.701Z,10.18
2023-01-01T21:17:00.623Z,10.00
2023-01-01T21:19:27.919Z,10.25
2023-01-01T21:21:58.111Z,10.14
2023-01-01T21:24:37.244Z,10.23
2023-01-01T21:27:24.361Z,10.34
2023-01-01T21:29:53.052Z,10.37
2023-01-01T21:32:40.580Z,10.39
2023-01-01T21:35:19.297Z,10.34
2023-01-01T21:37:48.635Z,10.45
2023-01-01T21:40:36.386Z,10.52
2023-01-01T21:43:06.893Z,10.53
2023-01-01T21:45:36.050Z,10.43
2023-01-01T21:48:11.549Z,10.48
2023-01-01T21:50:41.315Z,10.41
2023-01-01T21:53:35.415Z,10.44
2023-01-01T21:56:32.001Z,10.28
2023-01-01T21:59:09.597Z,10.07
2023-01-01T22:01:43.329Z,9.80
2023-01-01T22:04:10.039Z,9.67
2023-01-01T22:06:40.246Z,9.64
2023-01-01T22:09:35.922Z,9.66
2023-01-01T22:12:22.907Z,9.58
2023-01-01T22:14:52.290Z,9.46
2023-01-01T22:17:37.258Z,9.47
2023-01-01T22:20:22.933Z,9.63
2023-01-01T22:22:52.204Z,9.79
2023-01-01T22:25:27.469Z,9.85
2023-01-01T22:27:54.747Z,9.83
2023-01-01T22:30:42.100Z,9.80
2023-01-01T22:33:22.557Z,9.29
2023-01-01T22:35:53.226Z,9.32
2023-01-01T22:38:21.994Z,9.49
2023-01-01T22:40:50.538Z,9.46
2023-01-01T22:43:22.511Z,9.42
2023-01-01T22:45:49.988Z,9.47
2023-01-01T22:48:29.243Z,9.51
2023-01-01T22:51:02.633Z,9.57
2023-01-01T22:53:29.546Z,9.36
2023-01-01T22:55:56.226Z,9.68
2023-01-01T22:58:23.930Z,9.48
2023-01-01T23:00:50.713Z,9.89
2023-01-01T23:03:21.934Z,9.88
2023-01-01T23:05:48.950Z,9.75
2023-01-01T23:08:15.578Z,9.77
2023-01-01T23:10:42.312Z,9.48
2023-01-01T23:13:09.137Z,9.47
2023-01-01T23:15:35.969Z,9.53
2023-01-01T23:18:02.771Z,9.65
2023-01-01T23:20:30.974Z,9.54
2023-01-01T23:22:57.634Z,9.72
2023-01-01T23:25:24.539Z,9.75
2023-01-01T23:27:52.932Z,9.92
2023-01-01T23:30:19.720Z,9.79
2023-01-01T23:32:46.921Z,10.02
2023-01-01T23:35:13.730Z,9.93
2023-01-01T23:37:40.500Z,10.29
2023-01-01T23:40:08.000Z,10.21
2023-01-01T23:42:34.617Z,10.37
2023-01-01T23:45:01.335Z,10.26
2023-01-01T23:47:28.644Z,10.07
2023-01-01T23:49:55.407Z,10.32
2023-01-01T23:52:22.070Z,10.34
2023-01-01T23:54:48.814Z,10.39
2023-01-01T23:57:15.428Z,10.30
2023-01-01T23:59:42.128Z,10.31
